sensor_id;sensor_type;location;lat;lon;timestamp;P1;durP1;ratioP1;P2;durP2;ratioP2
3795;SDS011;1913;50.660;7.834;2022-09-09T00:01:07;6.83;;;1.90;;
3795;SDS011;1913;50.660;7.834;2022-09-09T00:03:54;5.90;;;2.00;;
3795;SDS011;1913;50.660;7.834;2022-09-09T00:06:26;8.57;;;2.00;;
3795;SDS011;1913;50.660;7.834;2022-09-09T00:09:12;6.80;;;2.03;;
3795;SDS011;1913;50.660;7.834;2022-09-09T00:14:31;6.67;;;2.10;;
3795;SDS011;1913;50.660;7.834;2022-09-09T00:17:01;14.07;;;2.10;;
3795;SDS011;1913;50.660;7.834;2022-09-09T00:19:35;4.27;;;1.77;;
3795;SDS011;1913;50.660;7.834;2022-09-09T00:27:08;5.47;;;1.90;;
3795;SDS011;1913;50.660;7.834;2022-09-09T00:29:47;6.03;;;2.10;;
3795;SDS011;1913;50.660;7.834;2022-09-09T00:32:19;3.97;;;1.50;;
3795;SDS011;1913;50.660;7.834;2022-09-09T00:37:25;5.70;;;2.13;;
3795;SDS011;1913;50.660;7.834;2022-09-09T00:39:51;4.73;;;1.87;;
3795;SDS011;1913;50.660;7.834;2022-09-09T00:42:41;5.10;;;1.80;;
3795;SDS011;1913;50.660;7.834;2022-09-09T00:47:40;4.53;;;1.80;;
3795;SDS011;1913;50.660;7.834;2022-09-09T00:56:07;3.17;;;1.70;;
3795;SDS011;1913;50.660;7.834;2022-09-09T00:58:38;6.63;;;1.97;;
3795;SDS011;1913;50.660;7.834;2022-09-09T01:01:11;6.33;;;1.50;;
3795;SDS011;1913;50.660;7.834;2022-09-09T01:06:16;8.23;;;2.10;;
3795;SDS011;1913;50.660;7.834;2022-09-09T01:09:27;6.10;;;1.70;;
3795;SDS011;1913;50.660;7.834;2022-09-09T01:12:14;5.40;;;2.13;;
3795;SDS011;1913;50.660;7.834;2022-09-09T01:27:31;6.30;;;1.90;;
3795;SDS011;1913;50.660;7.834;2022-09-09T01:29:58;4.50;;;1.77;;
3795;SDS011;1913;50.660;7.834;2022-09-09T01:35:08;6.03;;;1.70;;
3795;SDS011;1913;50.660;7.834;2022-09-09T01:37:39;8.17;;;2.00;;
3795;SDS011;1913;50.660;7.834;2022-09-09T01:40:05;6.93;;;1.90;;
3795;SDS011;1913;50.660;7.834;2022-09-09T01:42:31;7.73;;;2.10;;
3795;SDS011;1913;50.660;7.834;2022-09-09T01:44:56;9.27;;;2.17;;
3795;SDS011;1913;50.660;7.834;2022-09-09T01:47:22;10.13;;;2.20;;
3795;SDS011;1913;50.660;7.834;2022-09-09T01:49:48;6.43;;;1.93;;
3795;SDS011;1913;50.660;7.834;2022-09-09T01:52:13;4.93;;;1.90;;
3795;SDS011;1913;50.660;7.834;2022-09-09T01:54:38;5.30;;;2.10;;
3795;SDS011;1913;50.660;7.834;2022-09-09T02:08:10;3.33;;;2.00;;
3795;SDS011;1913;50.660;7.834;2022-09-09T02:13:21;11.20;;;2.13;;
3795;SDS011;1913;50.660;7.834;2022-09-09T02:21:35;6.40;;;2.27;;
3795;SDS011;1913;50.660;7.834;2022-09-09T02:24:02;5.23;;;1.90;;
3795;SDS011;1913;50.660;7.834;2022-09-09T02:26:33;9.80;;;2.80;;
3795;SDS011;1913;50.660;7.834;2022-09-09T02:29:01;5.87;;;2.40;;
3795;SDS011;1913;50.660;7.834;2022-09-09T02:31:28;6.00;;;1.93;;
3795;SDS011;1913;50.660;7.834;2022-09-09T02:33:55;2.60;;;1.80;;
3795;SDS011;1913;50.660;7.834;2022-09-09T02:36:24;4.83;;;1.70;;
3795;SDS011;1913;50.660;7.834;2022-09-09T02:38:54;8.10;;;2.10;;
3795;SDS011;1913;50.660;7.834;2022-09-09T02:41:23;2.80;;;1.80;;
3795;SDS011;1913;50.660;7.834;2022-09-09T02:43:53;5.97;;;1.90;;
3795;SDS011;1913;50.660;7.834;2022-09-09T02:46:32;14.57;;;2.60;;
3795;SDS011;1913;50.660;7.834;2022-09-09T02:54:17;11.43;;;2.60;;
3795;SDS011;1913;50.660;7.834;2022-09-09T02:56:52;7.73;;;2.07;;
3795;SDS011;1913;50.660;7.834;2022-09-09T02:59:21;7.77;;;2.07;;
3795;SDS011;1913;50.660;7.834;2022-09-09T03:01:49;6.33;;;2.00;;
3795;SDS011;1913;50.660;7.834;2022-09-09T03:04:14;8.70;;;2.40;;
3795;SDS011;1913;50.660;7.834;2022-09-09T03:06:40;12.00;;;3.00;;
3795;SDS011;1913;50.660;7.834;2022-09-09T03:09:05;6.33;;;1.83;;
3795;SDS011;1913;50.660;7.834;2022-09-09T03:11:31;7.50;;;1.93;;
3795;SDS011;1913;50.660;7.834;2022-09-09T03:13:56;5.53;;;2.57;;
3795;SDS011;1913;50.660;7.834;2022-09-09T03:16:22;7.33;;;2.23;;
3795;SDS011;1913;50.660;7.834;2022-09-09T03:18:48;5.37;;;1.90;;
3795;SDS011;1913;50.660;7.834;2022-09-09T03:21:14;5.93;;;2.50;;
3795;SDS011;1913;50.660;7.834;2022-09-09T03:23:39;8.00;;;2.10;;
3795;SDS011;1913;50.660;7.834;2022-09-09T03:26:05;5.00;;;2.37;;
3795;SDS011;1913;50.660;7.834;2022-09-09T03:28:31;6.20;;;2.67;;
3795;SDS011;1913;50.660;7.834;2022-09-09T03:31:00;7.53;;;2.20;;
3795;SDS011;1913;50.660;7.834;2022-09-09T03:33:26;6.13;;;2.30;;
3795;SDS011;1913;50.660;7.834;2022-09-09T03:35:52;8.33;;;1.90;;
3795;SDS011;1913;50.660;7.834;2022-09-09T03:38:18;4.13;;;2.00;;
3795;SDS011;1913;50.660;7.834;2022-09-09T03:40:50;6.33;;;2.40;;
3795;SDS011;1913;50.660;7.834;2022-09-09T03:43:18;6.80;;;2.30;;
3795;SDS011;1913;50.660;7.834;2022-09-09T03:45:45;4.77;;;1.90;;
3795;SDS011;1913;50.660;7.834;2022-09-09T03:48:12;12.10;;;2.57;;
3795;SDS011;1913;50.660;7.834;2022-09-09T03:50:38;4.97;;;2.03;;
3795;SDS011;1913;50.660;7.834;2022-09-09T03:53:03;6.90;;;2.33;;
3795;SDS011;1913;50.660;7.834;2022-09-09T03:55:31;9.93;;;2.90;;
3795;SDS011;1913;50.660;7.834;2022-09-09T03:57:57;4.00;;;1.77;;
3795;SDS011;1913;50.660;7.834;2022-09-09T04:00:23;7.27;;;1.90;;
3795;SDS011;1913;50.660;7.834;2022-09-09T04:02:49;10.10;;;2.50;;
3795;SDS011;1913;50.660;7.834;2022-09-09T04:05:15;9.00;;;2.23;;
3795;SDS011;1913;50.660;7.834;2022-09-09T04:07:40;4.83;;;2.30;;
3795;SDS011;1913;50.660;7.834;2022-09-09T04:10:06;10.17;;;2.77;;
3795;SDS011;1913;50.660;7.834;2022-09-09T04:12:33;5.20;;;2.33;;
3795;SDS011;1913;50.660;7.834;2022-09-09T04:14:59;4.80;;;2.17;;
3795;SDS011;1913;50.660;7.834;2022-09-09T04:17:27;7.63;;;2.00;;
3795;SDS011;1913;50.660;7.834;2022-09-09T04:19:52;8.83;;;2.40;;
3795;SDS011;1913;50.660;7.834;2022-09-09T04:22:18;7.70;;;2.20;;
3795;SDS011;1913;50.660;7.834;2022-09-09T04:24:43;9.27;;;2.43;;
3795;SDS011;1913;50.660;7.834;2022-09-09T04:27:09;8.30;;;2.13;;
3795;SDS011;1913;50.660;7.834;2022-09-09T04:29:34;6.37;;;2.30;;
3795;SDS011;1913;50.660;7.834;2022-09-09T04:32:00;5.70;;;2.10;;
3795;SDS011;1913;50.660;7.834;2022-09-09T04:34:25;11.10;;;2.40;;
3795;SDS011;1913;50.660;7.834;2022-09-09T04:36:51;10.27;;;2.50;;
3795;SDS011;1913;50.660;7.834;2022-09-09T04:39:17;6.17;;;2.00;;
3795;SDS011;1913;50.660;7.834;2022-09-09T04:41:42;6.03;;;2.37;;
3795;SDS011;1913;50.660;7.834;2022-09-09T04:44:08;3.10;;;1.80;;
3795;SDS011;1913;50.660;7.834;2022-09-09T04:46:33;7.27;;;2.10;;
3795;SDS011;1913;50.660;7.834;2022-09-09T04:48:59;7.27;;;2.60;;
3795;SDS011;1913;50.660;7.834;2022-09-09T04:51:25;7.10;;;2.40;;
3795;SDS011;1913;50.660;7.834;2022-09-09T04:53:50;9.63;;;2.23;;
3795;SDS011;1913;50.660;7.834;2022-09-09T04:56:16;6.83;;;2.30;;
3795;SDS011;1913;50.660;7.834;2022-09-09T04:58:43;6.67;;;2.20;;
3795;SDS011;1913;50.660;7.834;2022-09-09T05:01:19;9.83;;;2.10;;
3795;SDS011;1913;50.660;7.834;2022-09-09T05:03:47;8.50;;;2.30;;
3795;SDS011;1913;50.660;7.834;2022-09-09T05:06:16;10.70;;;2.00;;
3795;SDS011;1913;50.660;7.834;2022-09-09T05:08:43;6.27;;;2.10;;
3795;SDS011;1913;50.660;7.834;2022-09-09T05:11:16;10.60;;;1.90;;
3795;SDS011;1913;50.660;7.834;2022-09-09T05:13:52;6.67;;;2.30;;
3795;SDS011;1913;50.660;7.834;2022-09-09T05:16:18;10.17;;;2.33;;
3795;SDS011;1913;50.660;7.834;2022-09-09T05:18:44;5.47;;;2.17;;
3795;SDS011;1913;50.660;7.834;2022-09-09T05:21:15;9.03;;;2.40;;
3795;SDS011;1913;50.660;7.834;2022-09-09T05:23:41;7.30;;;2.37;;
3795;SDS011;1913;50.660;7.834;2022-09-09T05:26:08;6.27;;;2.17;;
3795;SDS011;1913;50.660;7.834;2022-09-09T05:28:37;5.63;;;2.47;;
3795;SDS011;1913;50.660;7.834;2022-09-09T05:31:03;7.90;;;2.20;;
3795;SDS011;1913;50.660;7.834;2022-09-09T05:33:30;6.37;;;2.40;;
3795;SDS011;1913;50.660;7.834;2022-09-09T05:35:57;5.77;;;2.13;;
3795;SDS011;1913;50.660;7.834;2022-09-09T05:38:27;6.93;;;2.20;;
3795;SDS011;1913;50.660;7.834;2022-09-09T05:40:54;6.80;;;2.23;;
3795;SDS011;1913;50.660;7.834;2022-09-09T05:43:21;9.77;;;2.10;;
3795;SDS011;1913;50.660;7.834;2022-09-09T05:45:47;9.27;;;2.20;;
3795;SDS011;1913;50.660;7.834;2022-09-09T05:48:16;12.60;;;2.23;;
3795;SDS011;1913;50.660;7.834;2022-09-09T05:50:42;8.00;;;2.53;;
3795;SDS011;1913;50.660;7.834;2022-09-09T05:53:08;7.20;;;2.43;;
3795;SDS011;1913;50.660;7.834;2022-09-09T05:55:36;8.80;;;2.20;;
3795;SDS011;1913;50.660;7.834;2022-09-09T05:58:02;7.60;;;2.70;;
3795;SDS011;1913;50.660;7.834;2022-09-09T06:00:27;7.37;;;1.80;;
3795;SDS011;1913;50.660;7.834;2022-09-09T06:02:56;8.70;;;2.20;;
3795;SDS011;1913;50.660;7.834;2022-09-09T06:05:22;8.50;;;2.50;;
3795;SDS011;1913;50.660;7.834;2022-09-09T06:07:51;9.47;;;2.50;;
3795;SDS011;1913;50.660;7.834;2022-09-09T06:10:17;7.47;;;2.20;;
3795;SDS011;1913;50.660;7.834;2022-09-09T06:12:42;8.50;;;2.30;;
3795;SDS011;1913;50.660;7.834;2022-09-09T06:15:08;6.43;;;2.17;;
3795;SDS011;1913;50.660;7.834;2022-09-09T06:17:34;11.57;;;2.50;;
3795;SDS011;1913;50.660;7.834;2022-09-09T06:19:59;3.70;;;1.87;;
3795;SDS011;1913;50.660;7.834;2022-09-09T06:22:24;5.97;;;2.00;;
3795;SDS011;1913;50.660;7.834;2022-09-09T06:24:50;5.20;;;2.07;;
3795;SDS011;1913;50.660;7.834;2022-09-09T06:27:16;9.80;;;2.33;;
3795;SDS011;1913;50.660;7.834;2022-09-09T06:29:41;2.30;;;1.57;;
3795;SDS011;1913;50.660;7.834;2022-09-09T06:32:07;7.50;;;2.57;;
3795;SDS011;1913;50.660;7.834;2022-09-09T06:34:33;4.00;;;1.93;;
3795;SDS011;1913;50.660;7.834;2022-09-09T06:36:59;7.23;;;1.70;;
3795;SDS011;1913;50.660;7.834;2022-09-09T06:39:24;10.70;;;2.93;;
3795;SDS011;1913;50.660;7.834;2022-09-09T06:41:50;8.03;;;2.40;;
3795;SDS011;1913;50.660;7.834;2022-09-09T06:44:18;10.80;;;2.40;;
3795;SDS011;1913;50.660;7.834;2022-09-09T06:46:44;10.73;;;2.50;;
3795;SDS011;1913;50.660;7.834;2022-09-09T06:49:12;8.87;;;2.37;;
3795;SDS011;1913;50.660;7.834;2022-09-09T06:51:38;9.17;;;2.57;;
3795;SDS011;1913;50.660;7.834;2022-09-09T06:54:11;10.60;;;2.33;;
3795;SDS011;1913;50.660;7.834;2022-09-09T06:56:38;11.50;;;2.83;;
3795;SDS011;1913;50.660;7.834;2022-09-09T06:59:08;9.77;;;3.00;;
3795;SDS011;1913;50.660;7.834;2022-09-09T07:01:35;7.80;;;2.57;;
3795;SDS011;1913;50.660;7.834;2022-09-09T07:04:03;8.10;;;2.10;;
3795;SDS011;1913;50.660;7.834;2022-09-09T07:06:33;9.97;;;2.37;;
3795;SDS011;1913;50.660;7.834;2022-09-09T07:09:00;8.00;;;1.83;;
3795;SDS011;1913;50.660;7.834;2022-09-09T07:11:29;11.50;;;2.50;;
3795;SDS011;1913;50.660;7.834;2022-09-09T07:13:57;8.80;;;2.33;;
3795;SDS011;1913;50.660;7.834;2022-09-09T07:16:24;9.17;;;2.30;;
3795;SDS011;1913;50.660;7.834;2022-09-09T07:18:51;9.30;;;2.40;;
3795;SDS011;1913;50.660;7.834;2022-09-09T07:21:17;5.57;;;2.23;;
3795;SDS011;1913;50.660;7.834;2022-09-09T07:23:44;7.20;;;2.07;;
3795;SDS011;1913;50.660;7.834;2022-09-09T07:26:10;9.43;;;2.10;;
3795;SDS011;1913;50.660;7.834;2022-09-09T07:28:38;11.90;;;2.07;;
3795;SDS011;1913;50.660;7.834;2022-09-09T07:31:04;10.57;;;1.83;;
3795;SDS011;1913;50.660;7.834;2022-09-09T07:33:31;8.63;;;2.20;;
3795;SDS011;1913;50.660;7.834;2022-09-09T07:36:12;8.10;;;2.23;;
3795;SDS011;1913;50.660;7.834;2022-09-09T07:38:46;7.13;;;2.03;;
3795;SDS011;1913;50.660;7.834;2022-09-09T07:41:21;3.43;;;1.67;;
3795;SDS011;1913;50.660;7.834;2022-09-09T07:43:49;12.43;;;2.53;;
3795;SDS011;1913;50.660;7.834;2022-09-09T07:46:16;13.73;;;2.13;;
3795;SDS011;1913;50.660;7.834;2022-09-09T07:48:48;8.07;;;1.80;;
3795;SDS011;1913;50.660;7.834;2022-09-09T07:51:16;5.30;;;1.60;;
3795;SDS011;1913;50.660;7.834;2022-09-09T07:53:46;10.33;;;2.13;;
3795;SDS011;1913;50.660;7.834;2022-09-09T07:56:14;11.90;;;2.10;;
3795;SDS011;1913;50.660;7.834;2022-09-09T07:58:47;5.40;;;1.73;;
3795;SDS011;1913;50.660;7.834;2022-09-09T08:01:13;6.33;;;2.10;;
3795;SDS011;1913;50.660;7.834;2022-09-09T08:03:43;5.67;;;1.83;;
3795;SDS011;1913;50.660;7.834;2022-09-09T08:06:09;11.37;;;2.03;;
3795;SDS011;1913;50.660;7.834;2022-09-09T08:08:36;7.77;;;2.07;;
3795;SDS011;1913;50.660;7.834;2022-09-09T08:11:10;4.97;;;1.83;;
3795;SDS011;1913;50.660;7.834;2022-09-09T08:13:37;8.53;;;2.30;;
3795;SDS011;1913;50.660;7.834;2022-09-09T08:16:38;7.27;;;1.87;;
3795;SDS011;1913;50.660;7.834;2022-09-09T08:18:57;6.03;;;1.90;;
3795;SDS011;1913;50.660;7.834;2022-09-09T08:21:25;5.23;;;2.00;;
3795;SDS011;1913;50.660;7.834;2022-09-09T08:23:55;6.50;;;1.77;;
3795;SDS011;1913;50.660;7.834;2022-09-09T08:26:26;7.07;;;1.80;;
3795;SDS011;1913;50.660;7.834;2022-09-09T08:28:56;6.60;;;1.87;;
3795;SDS011;1913;50.660;7.834;2022-09-09T08:31:25;7.60;;;1.80;;
3795;SDS011;1913;50.660;7.834;2022-09-09T08:33:55;7.00;;;1.80;;
3795;SDS011;1913;50.660;7.834;2022-09-09T08:36:23;6.20;;;2.20;;
3795;SDS011;1913;50.660;7.834;2022-09-09T08:38:54;9.47;;;2.00;;
3795;SDS011;1913;50.660;7.834;2022-09-09T08:52:43;12.30;;;2.00;;
3795;SDS011;1913;50.660;7.834;2022-09-09T08:55:58;9.80;;;2.43;;
3795;SDS011;1913;50.660;7.834;2022-09-09T08:58:09;7.47;;;1.87;;
3795;SDS011;1913;50.660;7.834;2022-09-09T09:00:44;5.00;;;1.90;;
3795;SDS011;1913;50.660;7.834;2022-09-09T09:08:53;5.33;;;1.70;;
3795;SDS011;1913;50.660;7.834;2022-09-09T09:11:40;5.60;;;1.73;;
3795;SDS011;1913;50.660;7.834;2022-09-09T09:14:20;8.63;;;1.83;;
3795;SDS011;1913;50.660;7.834;2022-09-09T09:16:55;8.37;;;1.60;;
3795;SDS011;1913;50.660;7.834;2022-09-09T09:19:23;4.50;;;1.83;;
3795;SDS011;1913;50.660;7.834;2022-09-09T09:26:48;9.03;;;2.10;;
3795;SDS011;1913;50.660;7.834;2022-09-09T09:29:14;6.47;;;2.10;;
3795;SDS011;1913;50.660;7.834;2022-09-09T09:31:43;9.17;;;1.93;;
3795;SDS011;1913;50.660;7.834;2022-09-09T09:34:13;6.73;;;1.97;;
3795;SDS011;1913;50.660;7.834;2022-09-09T09:36:39;4.13;;;1.50;;
3795;SDS011;1913;50.660;7.834;2022-09-09T09:39:22;9.27;;;1.70;;
3795;SDS011;1913;50.660;7.834;2022-09-09T09:41:55;8.90;;;2.13;;
3795;SDS011;1913;50.660;7.834;2022-09-09T09:44:29;8.53;;;2.30;;
3795;SDS011;1913;50.660;7.834;2022-09-09T09:49:31;4.80;;;1.40;;
3795;SDS011;1913;50.660;7.834;2022-09-09T09:52:06;4.40;;;1.53;;
3795;SDS011;1913;50.660;7.834;2022-09-09T09:54:39;5.00;;;1.67;;
3795;SDS011;1913;50.660;7.834;2022-09-09T09:57:14;5.27;;;1.60;;
3795;SDS011;1913;50.660;7.834;2022-09-09T09:59:41;9.17;;;2.03;;
3795;SDS011;1913;50.660;7.834;2022-09-09T10:02:25;9.00;;;2.00;;
3795;SDS011;1913;50.660;7.834;2022-09-09T10:05:02;6.80;;;1.87;;
3795;SDS011;1913;50.660;7.834;2022-09-09T10:07:29;8.20;;;1.77;;
3795;SDS011;1913;50.660;7.834;2022-09-09T10:09:55;7.03;;;1.50;;
3795;SDS011;1913;50.660;7.834;2022-09-09T10:15:22;5.47;;;1.90;;
3795;SDS011;1913;50.660;7.834;2022-09-09T10:18:08;2.90;;;1.40;;
3795;SDS011;1913;50.660;7.834;2022-09-09T10:48:55;5.10;;;1.70;;
3795;SDS011;1913;50.660;7.834;2022-09-09T10:51:36;6.10;;;1.77;;
3795;SDS011;1913;50.660;7.834;2022-09-09T10:54:26;6.80;;;1.80;;
3795;SDS011;1913;50.660;7.834;2022-09-09T10:56:56;8.10;;;2.00;;
3795;SDS011;1913;50.660;7.834;2022-09-09T10:59:31;5.03;;;1.40;;
3795;SDS011;1913;50.660;7.834;2022-09-09T11:02:24;4.90;;;1.87;;
3795;SDS011;1913;50.660;7.834;2022-09-09T11:05:08;7.23;;;1.60;;
3795;SDS011;1913;50.660;7.834;2022-09-09T11:07:42;6.57;;;2.17;;
3795;SDS011;1913;50.660;7.834;2022-09-09T11:10:17;3.50;;;1.90;;
3795;SDS011;1913;50.660;7.834;2022-09-09T11:12:53;4.27;;;1.67;;
3795;SDS011;1913;50.660;7.834;2022-09-09T11:15:31;6.90;;;2.13;;
3795;SDS011;1913;50.660;7.834;2022-09-09T11:18:06;2.53;;;1.37;;
3795;SDS011;1913;50.660;7.834;2022-09-09T11:20:41;4.73;;;1.40;;
3795;SDS011;1913;50.660;7.834;2022-09-09T11:23:12;6.73;;;1.90;;
3795;SDS011;1913;50.660;7.834;2022-09-09T11:25:49;6.30;;;1.83;;
3795;SDS011;1913;50.660;7.834;2022-09-09T11:36:54;3.53;;;1.37;;
3795;SDS011;1913;50.660;7.834;2022-09-09T11:44:53;7.00;;;1.63;;
3795;SDS011;1913;50.660;7.834;2022-09-09T11:47:27;7.87;;;2.00;;
3795;SDS011;1913;50.660;7.834;2022-09-09T11:52:41;5.93;;;1.70;;
3795;SDS011;1913;50.660;7.834;2022-09-09T11:57:56;4.13;;;1.67;;
3795;SDS011;1913;50.660;7.834;2022-09-09T12:01:12;6.60;;;1.50;;
3795;SDS011;1913;50.660;7.834;2022-09-09T12:03:34;4.57;;;1.40;;
3795;SDS011;1913;50.660;7.834;2022-09-09T12:11:52;4.67;;;1.57;;
3795;SDS011;1913;50.660;7.834;2022-09-09T12:14:21;8.97;;;1.73;;
3795;SDS011;1913;50.660;7.834;2022-09-09T12:17:08;2.33;;;1.13;;
3795;SDS011;1913;50.660;7.834;2022-09-09T12:27:57;6.80;;;1.90;;
3795;SDS011;1913;50.660;7.834;2022-09-09T12:33:36;2.70;;;1.23;;
3795;SDS011;1913;50.660;7.834;2022-09-09T12:36:05;3.00;;;1.30;;
3795;SDS011;1913;50.660;7.834;2022-09-09T12:38:38;4.20;;;1.57;;
3795;SDS011;1913;50.660;7.834;2022-09-09T12:41:06;3.23;;;1.40;;
3795;SDS011;1913;50.660;7.834;2022-09-09T12:43:46;6.40;;;1.50;;
3795;SDS011;1913;50.660;7.834;2022-09-09T12:46:54;5.83;;;1.50;;
3795;SDS011;1913;50.660;7.834;2022-09-09T12:49:03;2.90;;;1.43;;
3795;SDS011;1913;50.660;7.834;2022-09-09T12:51:32;5.50;;;1.67;;
3795;SDS011;1913;50.660;7.834;2022-09-09T12:53:59;4.50;;;1.57;;
3795;SDS011;1913;50.660;7.834;2022-09-09T12:56:26;8.50;;;2.20;;
3795;SDS011;1913;50.660;7.834;2022-09-09T12:58:55;3.97;;;1.70;;
3795;SDS011;1913;50.660;7.834;2022-09-09T13:01:26;6.53;;;1.83;;
3795;SDS011;1913;50.660;7.834;2022-09-09T13:03:52;6.40;;;1.93;;
3795;SDS011;1913;50.660;7.834;2022-09-09T13:06:22;4.80;;;1.50;;
3795;SDS011;1913;50.660;7.834;2022-09-09T13:08:53;5.30;;;1.80;;
3795;SDS011;1913;50.660;7.834;2022-09-09T13:11:35;5.10;;;1.73;;
3795;SDS011;1913;50.660;7.834;2022-09-09T13:14:04;3.77;;;1.40;;
3795;SDS011;1913;50.660;7.834;2022-09-09T13:16:34;3.17;;;1.47;;
3795;SDS011;1913;50.660;7.834;2022-09-09T13:19:22;4.10;;;1.40;;
3795;SDS011;1913;50.660;7.834;2022-09-09T13:21:46;4.30;;;1.30;;
3795;SDS011;1913;50.660;7.834;2022-09-09T13:26:57;3.40;;;1.50;;
3795;SDS011;1913;50.660;7.834;2022-09-09T13:29:24;2.40;;;1.33;;
3795;SDS011;1913;50.660;7.834;2022-09-09T13:31:50;5.97;;;1.37;;
3795;SDS011;1913;50.660;7.834;2022-09-09T13:34:27;3.50;;;1.20;;
3795;SDS011;1913;50.660;7.834;2022-09-09T13:36:59;2.97;;;1.30;;
3795;SDS011;1913;50.660;7.834;2022-09-09T13:39:30;3.57;;;1.53;;
3795;SDS011;1913;50.660;7.834;2022-09-09T13:41:58;3.17;;;1.47;;
3795;SDS011;1913;50.660;7.834;2022-09-09T13:44:28;5.07;;;1.60;;
3795;SDS011;1913;50.660;7.834;2022-09-09T13:47:00;6.00;;;1.60;;
3795;SDS011;1913;50.660;7.834;2022-09-09T13:49:30;4.40;;;1.47;;
3795;SDS011;1913;50.660;7.834;2022-09-09T13:52:08;4.93;;;1.40;;
3795;SDS011;1913;50.660;7.834;2022-09-09T13:54:38;8.17;;;1.70;;
3795;SDS011;1913;50.660;7.834;2022-09-09T13:57:12;7.43;;;1.43;;
3795;SDS011;1913;50.660;7.834;2022-09-09T13:59:40;4.43;;;1.40;;
3795;SDS011;1913;50.660;7.834;2022-09-09T14:02:06;3.70;;;1.43;;
3795;SDS011;1913;50.660;7.834;2022-09-09T14:04:32;4.70;;;1.63;;
3795;SDS011;1913;50.660;7.834;2022-09-09T14:07:00;3.63;;;1.33;;
3795;SDS011;1913;50.660;7.834;2022-09-09T14:09:26;3.90;;;1.60;;
3795;SDS011;1913;50.660;7.834;2022-09-09T14:11:51;4.93;;;1.50;;
3795;SDS011;1913;50.660;7.834;2022-09-09T14:14:17;2.87;;;1.20;;
3795;SDS011;1913;50.660;7.834;2022-09-09T14:16:42;5.10;;;1.70;;
3795;SDS011;1913;50.660;7.834;2022-09-09T14:19:08;8.67;;;1.37;;
3795;SDS011;1913;50.660;7.834;2022-09-09T14:21:34;1.90;;;1.10;;
3795;SDS011;1913;50.660;7.834;2022-09-09T14:24:00;4.97;;;1.40;;
3795;SDS011;1913;50.660;7.834;2022-09-09T14:26:25;3.27;;;1.50;;
3795;SDS011;1913;50.660;7.834;2022-09-09T14:28:51;1.77;;;1.27;;
3795;SDS011;1913;50.660;7.834;2022-09-09T14:31:17;4.43;;;1.20;;
3795;SDS011;1913;50.660;7.834;2022-09-09T14:33:43;5.10;;;1.37;;
3795;SDS011;1913;50.660;7.834;2022-09-09T14:36:09;5.27;;;1.70;;
3795;SDS011;1913;50.660;7.834;2022-09-09T14:38:36;4.23;;;1.50;;
3795;SDS011;1913;50.660;7.834;2022-09-09T14:41:04;2.50;;;1.37;;
3795;SDS011;1913;50.660;7.834;2022-09-09T14:43:31;6.00;;;1.57;;
3795;SDS011;1913;50.660;7.834;2022-09-09T14:45:59;5.60;;;1.70;;
3795;SDS011;1913;50.660;7.834;2022-09-09T14:48:30;1.97;;;1.17;;
3795;SDS011;1913;50.660;7.834;2022-09-09T14:50:56;6.63;;;1.90;;
3795;SDS011;1913;50.660;7.834;2022-09-09T14:53:21;6.63;;;1.90;;
3795;SDS011;1913;50.660;7.834;2022-09-09T14:55:47;14.00;;;1.90;;
3795;SDS011;1913;50.660;7.834;2022-09-09T14:58:13;3.90;;;1.80;;
3795;SDS011;1913;50.660;7.834;2022-09-09T15:00:38;8.93;;;2.03;;
3795;SDS011;1913;50.660;7.834;2022-09-09T15:03:04;7.97;;;2.43;;
3795;SDS011;1913;50.660;7.834;2022-09-09T15:05:29;3.97;;;2.30;;
3795;SDS011;1913;50.660;7.834;2022-09-09T15:07:57;7.33;;;2.33;;
3795;SDS011;1913;50.660;7.834;2022-09-09T15:10:23;4.50;;;2.17;;
3795;SDS011;1913;50.660;7.834;2022-09-09T15:12:51;11.13;;;2.40;;
3795;SDS011;1913;50.660;7.834;2022-09-09T15:15:16;4.17;;;2.20;;
3795;SDS011;1913;50.660;7.834;2022-09-09T15:17:42;9.00;;;2.20;;
3795;SDS011;1913;50.660;7.834;2022-09-09T15:20:07;7.90;;;2.37;;
3795;SDS011;1913;50.660;7.834;2022-09-09T15:22:33;4.80;;;1.87;;
3795;SDS011;1913;50.660;7.834;2022-09-09T15:24:59;7.43;;;2.20;;
3795;SDS011;1913;50.660;7.834;2022-09-09T15:27:24;7.23;;;2.60;;
3795;SDS011;1913;50.660;7.834;2022-09-09T15:29:49;6.17;;;2.40;;
3795;SDS011;1913;50.660;7.834;2022-09-09T15:32:16;5.00;;;2.20;;
3795;SDS011;1913;50.660;7.834;2022-09-09T15:34:42;4.57;;;1.90;;
3795;SDS011;1913;50.660;7.834;2022-09-09T15:37:12;5.20;;;1.80;;
3795;SDS011;1913;50.660;7.834;2022-09-09T15:39:44;9.30;;;2.10;;
3795;SDS011;1913;50.660;7.834;2022-09-09T15:42:10;5.40;;;2.23;;
3795;SDS011;1913;50.660;7.834;2022-09-09T15:44:39;7.80;;;1.90;;
3795;SDS011;1913;50.660;7.834;2022-09-09T15:47:07;3.63;;;1.33;;
3795;SDS011;1913;50.660;7.834;2022-09-09T15:49:33;1.40;;;1.30;;
3795;SDS011;1913;50.660;7.834;2022-09-09T15:51:59;4.90;;;1.23;;
3795;SDS011;1913;50.660;7.834;2022-09-09T15:54:28;3.53;;;1.43;;
3795;SDS011;1913;50.660;7.834;2022-09-09T15:56:58;3.00;;;1.13;;
3795;SDS011;1913;50.660;7.834;2022-09-09T15:59:27;3.20;;;1.30;;
3795;SDS011;1913;50.660;7.834;2022-09-09T16:01:54;3.47;;;1.20;;
3795;SDS011;1913;50.660;7.834;2022-09-09T16:04:20;3.03;;;1.20;;
3795;SDS011;1913;50.660;7.834;2022-09-09T16:06:54;2.33;;;1.30;;
3795;SDS011;1913;50.660;7.834;2022-09-09T16:09:24;2.03;;;1.10;;
3795;SDS011;1913;50.660;7.834;2022-09-09T16:11:51;2.00;;;1.10;;
3795;SDS011;1913;50.660;7.834;2022-09-09T16:14:18;1.83;;;1.30;;
3795;SDS011;1913;50.660;7.834;2022-09-09T16:16:43;1.30;;;0.93;;
3795;SDS011;1913;50.660;7.834;2022-09-09T16:19:11;1.20;;;1.10;;
3795;SDS011;1913;50.660;7.834;2022-09-09T16:21:45;1.30;;;1.13;;
3795;SDS011;1913;50.660;7.834;2022-09-09T16:24:13;1.80;;;1.23;;
3795;SDS011;1913;50.660;7.834;2022-09-09T16:26:43;3.53;;;1.30;;
3795;SDS011;1913;50.660;7.834;2022-09-09T16:29:10;3.23;;;1.27;;
3795;SDS011;1913;50.660;7.834;2022-09-09T16:31:36;3.07;;;1.50;;
3795;SDS011;1913;50.660;7.834;2022-09-09T16:34:02;2.00;;;1.23;;
3795;SDS011;1913;50.660;7.834;2022-09-09T16:36:30;2.93;;;1.40;;
3795;SDS011;1913;50.660;7.834;2022-09-09T16:38:58;2.47;;;1.13;;
3795;SDS011;1913;50.660;7.834;2022-09-09T16:41:26;3.83;;;1.27;;
3795;SDS011;1913;50.660;7.834;2022-09-09T16:43:53;3.90;;;1.53;;
3795;SDS011;1913;50.660;7.834;2022-09-09T16:46:22;3.10;;;1.60;;
3795;SDS011;1913;50.660;7.834;2022-09-09T16:48:49;4.13;;;1.63;;
3795;SDS011;1913;50.660;7.834;2022-09-09T16:51:22;3.60;;;1.50;;
3795;SDS011;1913;50.660;7.834;2022-09-09T16:53:53;9.83;;;1.90;;
3795;SDS011;1913;50.660;7.834;2022-09-09T16:56:20;3.07;;;1.80;;
3795;SDS011;1913;50.660;7.834;2022-09-09T16:58:54;5.80;;;1.97;;
3795;SDS011;1913;50.660;7.834;2022-09-09T17:01:21;3.97;;;1.93;;
3795;SDS011;1913;50.660;7.834;2022-09-09T17:03:52;7.23;;;2.00;;
3795;SDS011;1913;50.660;7.834;2022-09-09T17:06:18;2.47;;;1.97;;
3795;SDS011;1913;50.660;7.834;2022-09-09T17:08:44;3.77;;;2.17;;
3795;SDS011;1913;50.660;7.834;2022-09-09T17:11:13;4.87;;;2.10;;
3795;SDS011;1913;50.660;7.834;2022-09-09T17:13:41;3.73;;;2.37;;
3795;SDS011;1913;50.660;7.834;2022-09-09T17:16:08;4.17;;;1.87;;
3795;SDS011;1913;50.660;7.834;2022-09-09T17:18:34;2.10;;;1.83;;
3795;SDS011;1913;50.660;7.834;2022-09-09T17:21:04;10.17;;;2.40;;
3795;SDS011;1913;50.660;7.834;2022-09-09T17:23:31;2.37;;;2.07;;
3795;SDS011;1913;50.660;7.834;2022-09-09T17:25:59;4.13;;;2.40;;
3795;SDS011;1913;50.660;7.834;2022-09-09T17:28:25;4.70;;;2.07;;
3795;SDS011;1913;50.660;7.834;2022-09-09T17:30:56;4.83;;;1.90;;
3795;SDS011;1913;50.660;7.834;2022-09-09T17:33:27;5.77;;;1.73;;
3795;SDS011;1913;50.660;7.834;2022-09-09T17:35:59;4.80;;;1.90;;
3795;SDS011;1913;50.660;7.834;2022-09-09T17:38:26;4.30;;;1.80;;
3795;SDS011;1913;50.660;7.834;2022-09-09T17:41:06;4.63;;;2.10;;
3795;SDS011;1913;50.660;7.834;2022-09-09T17:43:33;2.80;;;1.77;;
3795;SDS011;1913;50.660;7.834;2022-09-09T17:46:14;4.00;;;1.83;;
3795;SDS011;1913;50.660;7.834;2022-09-09T17:48:48;3.50;;;1.90;;
3795;SDS011;1913;50.660;7.834;2022-09-09T17:51:16;9.50;;;2.20;;
3795;SDS011;1913;50.660;7.834;2022-09-09T17:53:45;6.10;;;2.10;;
3795;SDS011;1913;50.660;7.834;2022-09-09T17:56:14;4.50;;;1.90;;
3795;SDS011;1913;50.660;7.834;2022-09-09T17:58:41;2.27;;;1.93;;
3795;SDS011;1913;50.660;7.834;2022-09-09T18:01:11;4.93;;;2.20;;
3795;SDS011;1913;50.660;7.834;2022-09-09T18:03:42;2.57;;;1.90;;
3795;SDS011;1913;50.660;7.834;2022-09-09T18:06:13;4.17;;;1.80;;